Fort McMurray, Canada
Current Conditions -  °F | °C
As of 2:00 PM on Wednesday 26 Nov 2014 (Local Time) from CYMM Reporting Station
Light Snow Light Snow  
Wind Chill: -8°   Ceiling: 4400
Heat Index:   Visibility: 9mi
Dew Point: -2°   Wind: 5mph
Humidity: 85%   Direction: 40°NE
Pressure: 30.2"   Gusts: NA
Location:  56.73°N, 111.38°W
Report Text: CYMM 262100Z AUTO 04004KT 030V100 9SM -SN OVC044 M17/M19 A3020 RMK SLP271
Loading
Personal Weather Stations






























Interactive Weather Map New forecast layout! Learn more

10-Day Weather Forecast

Advertisements
Track Severe Weather on mobile